sensor_id;sensor_type;location;lat;lon;timestamp;P1;durP1;ratioP1;P2;durP2;ratioP2
69985;SDS011;57328;52.054;5.294;2023-07-31T00:00:15;7.78;;;2.20;;
69985;SDS011;57328;52.054;5.294;2023-07-31T00:02:43;4.53;;;2.08;;
69985;SDS011;57328;52.054;5.294;2023-07-31T00:05:10;5.32;;;2.22;;
69985;SDS011;57328;52.054;5.294;2023-07-31T00:07:37;6.78;;;2.13;;
69985;SDS011;57328;52.054;5.294;2023-07-31T00:10:04;7.50;;;2.40;;
69985;SDS011;57328;52.054;5.294;2023-07-31T00:12:32;8.18;;;2.70;;
69985;SDS011;57328;52.054;5.294;2023-07-31T00:14:59;12.02;;;3.47;;
69985;SDS011;57328;52.054;5.294;2023-07-31T00:17:26;12.43;;;3.30;;
69985;SDS011;57328;52.054;5.294;2023-07-31T00:19:53;13.68;;;3.80;;
69985;SDS011;57328;52.054;5.294;2023-07-31T00:22:21;15.52;;;3.92;;
69985;SDS011;57328;52.054;5.294;2023-07-31T00:24:48;17.65;;;4.35;;
69985;SDS011;57328;52.054;5.294;2023-07-31T00:27:15;17.13;;;4.35;;
69985;SDS011;57328;52.054;5.294;2023-07-31T00:29:42;28.20;;;4.95;;
69985;SDS011;57328;52.054;5.294;2023-07-31T00:32:09;27.98;;;4.68;;
69985;SDS011;57328;52.054;5.294;2023-07-31T00:34:37;34.75;;;5.88;;
69985;SDS011;57328;52.054;5.294;2023-07-31T00:37:04;32.58;;;6.38;;
69985;SDS011;57328;52.054;5.294;2023-07-31T00:39:33;36.42;;;7.15;;
69985;SDS011;57328;52.054;5.294;2023-07-31T00:42:01;24.33;;;5.22;;
69985;SDS011;57328;52.054;5.294;2023-07-31T00:44:28;28.70;;;5.35;;
69985;SDS011;57328;52.054;5.294;2023-07-31T00:46:55;27.83;;;4.57;;
69985;SDS011;57328;52.054;5.294;2023-07-31T00:49:25;27.88;;;5.18;;
69985;SDS011;57328;52.054;5.294;2023-07-31T00:51:53;26.20;;;5.28;;
69985;SDS011;57328;52.054;5.294;2023-07-31T00:54:20;27.33;;;5.82;;
69985;SDS011;57328;52.054;5.294;2023-07-31T00:56:47;29.50;;;4.65;;
69985;SDS011;57328;52.054;5.294;2023-07-31T00:59:15;27.10;;;5.22;;
69985;SDS011;57328;52.054;5.294;2023-07-31T01:01:44;23.92;;;5.40;;
69985;SDS011;57328;52.054;5.294;2023-07-31T01:04:12;30.35;;;5.75;;
69985;SDS011;57328;52.054;5.294;2023-07-31T01:06:42;26.85;;;5.85;;
69985;SDS011;57328;52.054;5.294;2023-07-31T01:09:15;24.20;;;4.78;;
69985;SDS011;57328;52.054;5.294;2023-07-31T01:11:48;27.17;;;5.30;;
69985;SDS011;57328;52.054;5.294;2023-07-31T01:14:19;22.23;;;5.10;;
69985;SDS011;57328;52.054;5.294;2023-07-31T01:16:46;23.55;;;4.88;;
69985;SDS011;57328;52.054;5.294;2023-07-31T01:19:14;25.20;;;5.25;;
69985;SDS011;57328;52.054;5.294;2023-07-31T01:24:28;24.92;;;5.30;;
69985;SDS011;57328;52.054;5.294;2023-07-31T01:31:52;31.95;;;5.25;;
69985;SDS011;57328;52.054;5.294;2023-07-31T01:34:20;22.25;;;4.50;;
69985;SDS011;57328;52.054;5.294;2023-07-31T01:36:48;21.98;;;4.70;;
69985;SDS011;57328;52.054;5.294;2023-07-31T01:39:15;24.48;;;5.00;;
69985;SDS011;57328;52.054;5.294;2023-07-31T01:41:42;24.65;;;5.10;;
69985;SDS011;57328;52.054;5.294;2023-07-31T01:44:10;27.52;;;5.78;;
69985;SDS011;57328;52.054;5.294;2023-07-31T01:46:37;24.02;;;5.55;;
69985;SDS011;57328;52.054;5.294;2023-07-31T01:49:05;24.52;;;4.63;;
69985;SDS011;57328;52.054;5.294;2023-07-31T01:51:32;22.48;;;4.35;;
69985;SDS011;57328;52.054;5.294;2023-07-31T01:54:02;21.15;;;3.97;;
69985;SDS011;57328;52.054;5.294;2023-07-31T01:56:30;17.60;;;4.18;;
69985;SDS011;57328;52.054;5.294;2023-07-31T01:58:57;19.85;;;4.30;;
69985;SDS011;57328;52.054;5.294;2023-07-31T02:01:24;13.48;;;3.38;;
69985;SDS011;57328;52.054;5.294;2023-07-31T02:03:51;18.55;;;3.60;;
69985;SDS011;57328;52.054;5.294;2023-07-31T02:06:19;14.63;;;4.07;;
69985;SDS011;57328;52.054;5.294;2023-07-31T02:08:46;17.48;;;3.90;;
69985;SDS011;57328;52.054;5.294;2023-07-31T02:11:13;13.50;;;3.90;;
69985;SDS011;57328;52.054;5.294;2023-07-31T02:13:40;17.40;;;4.53;;
69985;SDS011;57328;52.054;5.294;2023-07-31T02:16:08;16.33;;;3.72;;
69985;SDS011;57328;52.054;5.294;2023-07-31T02:18:35;17.30;;;4.13;;
69985;SDS011;57328;52.054;5.294;2023-07-31T02:21:03;16.10;;;4.03;;
69985;SDS011;57328;52.054;5.294;2023-07-31T02:23:30;16.00;;;4.45;;
69985;SDS011;57328;52.054;5.294;2023-07-31T02:25:57;23.02;;;4.35;;
69985;SDS011;57328;52.054;5.294;2023-07-31T02:28:24;17.20;;;3.80;;
69985;SDS011;57328;52.054;5.294;2023-07-31T02:30:52;18.38;;;4.30;;
69985;SDS011;57328;52.054;5.294;2023-07-31T02:33:19;19.23;;;3.80;;
69985;SDS011;57328;52.054;5.294;2023-07-31T02:35:46;17.33;;;3.55;;
69985;SDS011;57328;52.054;5.294;2023-07-31T02:38:14;17.35;;;4.32;;
69985;SDS011;57328;52.054;5.294;2023-07-31T02:40:41;15.77;;;4.20;;
69985;SDS011;57328;52.054;5.294;2023-07-31T02:43:08;21.65;;;5.03;;
69985;SDS011;57328;52.054;5.294;2023-07-31T02:45:35;23.40;;;4.78;;
69985;SDS011;57328;52.054;5.294;2023-07-31T02:48:03;18.30;;;4.65;;
69985;SDS011;57328;52.054;5.294;2023-07-31T02:50:30;23.60;;;5.43;;
69985;SDS011;57328;52.054;5.294;2023-07-31T02:52:58;22.58;;;5.35;;
69985;SDS011;57328;52.054;5.294;2023-07-31T02:55:25;20.65;;;4.97;;
69985;SDS011;57328;52.054;5.294;2023-07-31T02:57:52;21.38;;;4.80;;
69985;SDS011;57328;52.054;5.294;2023-07-31T03:00:20;25.90;;;4.97;;
69985;SDS011;57328;52.054;5.294;2023-07-31T03:02:47;25.02;;;5.43;;
69985;SDS011;57328;52.054;5.294;2023-07-31T03:05:14;21.83;;;4.80;;
69985;SDS011;57328;52.054;5.294;2023-07-31T03:07:41;22.30;;;5.10;;
69985;SDS011;57328;52.054;5.294;2023-07-31T03:10:09;23.83;;;5.93;;
69985;SDS011;57328;52.054;5.294;2023-07-31T03:12:36;25.98;;;5.68;;
69985;SDS011;57328;52.054;5.294;2023-07-31T03:15:03;21.75;;;5.20;;
69985;SDS011;57328;52.054;5.294;2023-07-31T03:17:31;22.77;;;5.50;;
69985;SDS011;57328;52.054;5.294;2023-07-31T03:19:58;24.60;;;6.63;;
69985;SDS011;57328;52.054;5.294;2023-07-31T03:22:25;28.33;;;6.30;;
69985;SDS011;57328;52.054;5.294;2023-07-31T03:24:52;26.67;;;6.03;;
69985;SDS011;57328;52.054;5.294;2023-07-31T03:27:20;21.30;;;5.45;;
69985;SDS011;57328;52.054;5.294;2023-07-31T03:29:47;21.23;;;5.88;;
69985;SDS011;57328;52.054;5.294;2023-07-31T03:32:17;25.77;;;6.30;;
69985;SDS011;57328;52.054;5.294;2023-07-31T03:34:44;20.70;;;5.60;;
69985;SDS011;57328;52.054;5.294;2023-07-31T03:37:12;24.30;;;5.70;;
69985;SDS011;57328;52.054;5.294;2023-07-31T03:39:39;22.08;;;5.65;;
69985;SDS011;57328;52.054;5.294;2023-07-31T03:42:06;23.88;;;6.32;;
69985;SDS011;57328;52.054;5.294;2023-07-31T03:44:33;24.42;;;5.55;;
69985;SDS011;57328;52.054;5.294;2023-07-31T03:47:01;28.23;;;6.07;;
69985;SDS011;57328;52.054;5.294;2023-07-31T03:49:28;24.25;;;5.93;;
69985;SDS011;57328;52.054;5.294;2023-07-31T03:51:56;21.65;;;6.55;;
69985;SDS011;57328;52.054;5.294;2023-07-31T03:54:23;16.52;;;5.45;;
69985;SDS011;57328;52.054;5.294;2023-07-31T03:56:50;23.95;;;5.50;;
69985;SDS011;57328;52.054;5.294;2023-07-31T03:59:18;18.73;;;4.70;;
69985;SDS011;57328;52.054;5.294;2023-07-31T04:01:45;20.63;;;5.25;;
69985;SDS011;57328;52.054;5.294;2023-07-31T04:04:12;15.80;;;5.15;;
69985;SDS011;57328;52.054;5.294;2023-07-31T04:06:39;23.52;;;5.05;;
69985;SDS011;57328;52.054;5.294;2023-07-31T04:09:07;21.92;;;4.95;;
69985;SDS011;57328;52.054;5.294;2023-07-31T04:11:34;24.38;;;5.63;;
69985;SDS011;57328;52.054;5.294;2023-07-31T04:14:01;17.83;;;5.20;;
69985;SDS011;57328;52.054;5.294;2023-07-31T04:16:28;19.55;;;5.68;;
69985;SDS011;57328;52.054;5.294;2023-07-31T04:18:56;20.55;;;5.10;;
69985;SDS011;57328;52.054;5.294;2023-07-31T04:21:23;23.27;;;5.00;;
69985;SDS011;57328;52.054;5.294;2023-07-31T04:23:50;18.38;;;4.95;;
69985;SDS011;57328;52.054;5.294;2023-07-31T04:26:22;17.75;;;5.38;;
69985;SDS011;57328;52.054;5.294;2023-07-31T04:28:49;18.90;;;5.20;;
69985;SDS011;57328;52.054;5.294;2023-07-31T04:31:16;17.80;;;5.25;;
69985;SDS011;57328;52.054;5.294;2023-07-31T04:33:44;21.30;;;5.07;;
69985;SDS011;57328;52.054;5.294;2023-07-31T04:36:11;17.98;;;5.03;;
69985;SDS011;57328;52.054;5.294;2023-07-31T04:38:38;17.48;;;4.40;;
69985;SDS011;57328;52.054;5.294;2023-07-31T04:41:07;19.38;;;4.88;;
69985;SDS011;57328;52.054;5.294;2023-07-31T04:43:34;20.90;;;5.03;;
69985;SDS011;57328;52.054;5.294;2023-07-31T04:46:01;15.95;;;4.40;;
69985;SDS011;57328;52.054;5.294;2023-07-31T04:48:29;18.67;;;4.53;;
69985;SDS011;57328;52.054;5.294;2023-07-31T04:50:56;17.88;;;4.93;;
69985;SDS011;57328;52.054;5.294;2023-07-31T04:53:23;16.60;;;4.40;;
69985;SDS011;57328;52.054;5.294;2023-07-31T04:55:51;19.13;;;4.72;;
69985;SDS011;57328;52.054;5.294;2023-07-31T04:58:18;20.80;;;5.45;;
69985;SDS011;57328;52.054;5.294;2023-07-31T05:00:45;16.98;;;5.05;;
69985;SDS011;57328;52.054;5.294;2023-07-31T05:03:13;22.13;;;5.20;;
69985;SDS011;57328;52.054;5.294;2023-07-31T05:05:40;18.38;;;5.05;;
69985;SDS011;57328;52.054;5.294;2023-07-31T05:08:07;18.00;;;5.07;;
69985;SDS011;57328;52.054;5.294;2023-07-31T05:10:35;18.40;;;5.30;;
69985;SDS011;57328;52.054;5.294;2023-07-31T05:13:02;17.08;;;4.85;;
69985;SDS011;57328;52.054;5.294;2023-07-31T05:15:29;17.27;;;5.13;;
69985;SDS011;57328;52.054;5.294;2023-07-31T05:17:57;17.05;;;4.80;;
69985;SDS011;57328;52.054;5.294;2023-07-31T05:20:24;17.95;;;4.25;;
69985;SDS011;57328;52.054;5.294;2023-07-31T05:22:51;16.08;;;4.57;;
69985;SDS011;57328;52.054;5.294;2023-07-31T05:25:18;13.23;;;4.05;;
69985;SDS011;57328;52.054;5.294;2023-07-31T05:27:45;17.92;;;3.85;;
69985;SDS011;57328;52.054;5.294;2023-07-31T05:30:13;13.30;;;4.20;;
69985;SDS011;57328;52.054;5.294;2023-07-31T05:32:40;13.60;;;3.83;;
69985;SDS011;57328;52.054;5.294;2023-07-31T05:35:07;13.40;;;3.90;;
69985;SDS011;57328;52.054;5.294;2023-07-31T05:37:35;17.52;;;4.30;;
69985;SDS011;57328;52.054;5.294;2023-07-31T05:40:02;13.50;;;3.72;;
69985;SDS011;57328;52.054;5.294;2023-07-31T05:42:30;14.20;;;5.28;;
69985;SDS011;57328;52.054;5.294;2023-07-31T05:44:57;15.48;;;4.13;;
69985;SDS011;57328;52.054;5.294;2023-07-31T05:47:24;12.77;;;3.90;;
69985;SDS011;57328;52.054;5.294;2023-07-31T05:49:52;14.35;;;4.43;;
69985;SDS011;57328;52.054;5.294;2023-07-31T05:52:19;16.17;;;4.15;;
69985;SDS011;57328;52.054;5.294;2023-07-31T05:54:46;17.95;;;5.00;;
69985;SDS011;57328;52.054;5.294;2023-07-31T05:57:13;15.23;;;4.30;;
69985;SDS011;57328;52.054;5.294;2023-07-31T05:59:41;15.18;;;4.40;;
69985;SDS011;57328;52.054;5.294;2023-07-31T06:02:08;15.55;;;4.65;;
69985;SDS011;57328;52.054;5.294;2023-07-31T06:04:35;14.95;;;4.38;;
69985;SDS011;57328;52.054;5.294;2023-07-31T06:07:02;15.85;;;4.47;;
69985;SDS011;57328;52.054;5.294;2023-07-31T06:09:30;13.02;;;4.47;;
69985;SDS011;57328;52.054;5.294;2023-07-31T06:11:57;16.83;;;4.82;;
69985;SDS011;57328;52.054;5.294;2023-07-31T06:14:24;12.00;;;4.32;;
69985;SDS011;57328;52.054;5.294;2023-07-31T06:16:52;12.13;;;4.80;;
69985;SDS011;57328;52.054;5.294;2023-07-31T06:19:19;15.68;;;4.28;;
69985;SDS011;57328;52.054;5.294;2023-07-31T06:21:46;14.35;;;4.47;;
69985;SDS011;57328;52.054;5.294;2023-07-31T06:24:14;12.07;;;3.95;;
69985;SDS011;57328;52.054;5.294;2023-07-31T06:26:45;11.18;;;4.45;;
69985;SDS011;57328;52.054;5.294;2023-07-31T06:29:12;8.93;;;3.05;;
69985;SDS011;57328;52.054;5.294;2023-07-31T06:31:40;12.80;;;4.72;;
69985;SDS011;57328;52.054;5.294;2023-07-31T06:34:08;10.32;;;3.42;;
69985;SDS011;57328;52.054;5.294;2023-07-31T06:36:35;9.75;;;3.50;;
69985;SDS011;57328;52.054;5.294;2023-07-31T06:39:03;9.63;;;3.13;;
69985;SDS011;57328;52.054;5.294;2023-07-31T06:41:30;10.95;;;3.15;;
69985;SDS011;57328;52.054;5.294;2023-07-31T06:43:57;14.02;;;3.45;;
69985;SDS011;57328;52.054;5.294;2023-07-31T06:46:24;7.93;;;3.30;;
69985;SDS011;57328;52.054;5.294;2023-07-31T06:48:52;11.05;;;4.00;;
69985;SDS011;57328;52.054;5.294;2023-07-31T06:51:19;11.02;;;3.58;;
69985;SDS011;57328;52.054;5.294;2023-07-31T06:53:46;8.95;;;3.15;;
69985;SDS011;57328;52.054;5.294;2023-07-31T06:56:13;7.93;;;3.25;;
69985;SDS011;57328;52.054;5.294;2023-07-31T06:58:41;9.00;;;3.40;;
69985;SDS011;57328;52.054;5.294;2023-07-31T07:01:08;8.60;;;3.42;;
69985;SDS011;57328;52.054;5.294;2023-07-31T07:03:35;11.35;;;3.72;;
69985;SDS011;57328;52.054;5.294;2023-07-31T07:06:02;11.07;;;3.72;;
69985;SDS011;57328;52.054;5.294;2023-07-31T07:08:31;10.00;;;3.50;;
69985;SDS011;57328;52.054;5.294;2023-07-31T07:10:58;11.15;;;3.78;;
69985;SDS011;57328;52.054;5.294;2023-07-31T07:13:25;9.48;;;4.25;;
69985;SDS011;57328;52.054;5.294;2023-07-31T07:15:53;9.35;;;4.13;;
69985;SDS011;57328;52.054;5.294;2023-07-31T07:18:20;10.73;;;3.60;;
69985;SDS011;57328;52.054;5.294;2023-07-31T07:20:51;8.95;;;3.53;;
69985;SDS011;57328;52.054;5.294;2023-07-31T07:23:18;10.32;;;3.88;;
69985;SDS011;57328;52.054;5.294;2023-07-31T07:25:46;8.85;;;3.63;;
69985;SDS011;57328;52.054;5.294;2023-07-31T07:28:13;11.88;;;4.22;;
69985;SDS011;57328;52.054;5.294;2023-07-31T07:30:41;10.02;;;4.10;;
69985;SDS011;57328;52.054;5.294;2023-07-31T07:33:08;10.20;;;4.00;;
69985;SDS011;57328;52.054;5.294;2023-07-31T07:35:36;10.13;;;3.85;;
69985;SDS011;57328;52.054;5.294;2023-07-31T07:38:03;8.30;;;3.80;;
69985;SDS011;57328;52.054;5.294;2023-07-31T07:40:30;7.88;;;3.70;;
69985;SDS011;57328;52.054;5.294;2023-07-31T07:42:57;9.10;;;3.30;;
69985;SDS011;57328;52.054;5.294;2023-07-31T07:45:26;11.45;;;3.42;;
69985;SDS011;57328;52.054;5.294;2023-07-31T07:47:53;8.10;;;3.03;;
69985;SDS011;57328;52.054;5.294;2023-07-31T07:50:21;7.07;;;3.15;;
69985;SDS011;57328;52.054;5.294;2023-07-31T07:52:48;7.53;;;3.13;;
69985;SDS011;57328;52.054;5.294;2023-07-31T07:55:15;8.98;;;2.97;;
69985;SDS011;57328;52.054;5.294;2023-07-31T07:57:43;5.93;;;2.70;;
69985;SDS011;57328;52.054;5.294;2023-07-31T08:00:12;5.65;;;2.53;;
69985;SDS011;57328;52.054;5.294;2023-07-31T08:02:39;7.22;;;2.53;;
69985;SDS011;57328;52.054;5.294;2023-07-31T08:05:06;6.53;;;2.30;;
69985;SDS011;57328;52.054;5.294;2023-07-31T08:07:34;5.07;;;2.20;;
69985;SDS011;57328;52.054;5.294;2023-07-31T08:10:02;4.80;;;2.13;;
69985;SDS011;57328;52.054;5.294;2023-07-31T08:12:29;7.10;;;2.20;;
69985;SDS011;57328;52.054;5.294;2023-07-31T08:14:56;7.13;;;2.50;;
69985;SDS011;57328;52.054;5.294;2023-07-31T08:17:23;4.15;;;2.10;;
69985;SDS011;57328;52.054;5.294;2023-07-31T08:19:51;4.68;;;2.28;;
69985;SDS011;57328;52.054;5.294;2023-07-31T08:22:18;4.50;;;2.25;;
69985;SDS011;57328;52.054;5.294;2023-07-31T08:24:45;4.43;;;2.00;;
69985;SDS011;57328;52.054;5.294;2023-07-31T08:27:12;4.50;;;2.00;;
69985;SDS011;57328;52.054;5.294;2023-07-31T08:29:40;3.58;;;1.60;;
69985;SDS011;57328;52.054;5.294;2023-07-31T08:32:07;4.10;;;1.70;;
69985;SDS011;57328;52.054;5.294;2023-07-31T08:34:34;2.80;;;1.40;;
69985;SDS011;57328;52.054;5.294;2023-07-31T08:37:01;4.82;;;1.80;;
69985;SDS011;57328;52.054;5.294;2023-07-31T08:39:28;3.28;;;1.42;;
69985;SDS011;57328;52.054;5.294;2023-07-31T08:41:59;4.28;;;1.67;;
69985;SDS011;57328;52.054;5.294;2023-07-31T08:44:26;4.90;;;1.73;;
69985;SDS011;57328;52.054;5.294;2023-07-31T08:46:54;4.25;;;1.50;;
69985;SDS011;57328;52.054;5.294;2023-07-31T08:49:21;3.92;;;1.40;;
69985;SDS011;57328;52.054;5.294;2023-07-31T08:51:49;4.35;;;1.70;;
69985;SDS011;57328;52.054;5.294;2023-07-31T08:54:17;3.42;;;1.50;;
69985;SDS011;57328;52.054;5.294;2023-07-31T08:56:44;4.50;;;2.00;;
69985;SDS011;57328;52.054;5.294;2023-07-31T08:59:11;4.40;;;2.10;;
69985;SDS011;57328;52.054;5.294;2023-07-31T09:01:41;3.92;;;1.75;;
69985;SDS011;57328;52.054;5.294;2023-07-31T09:04:10;5.10;;;2.38;;
69985;SDS011;57328;52.054;5.294;2023-07-31T09:09:05;4.70;;;2.00;;
69985;SDS011;57328;52.054;5.294;2023-07-31T09:11:33;3.60;;;1.92;;
69985;SDS011;57328;52.054;5.294;2023-07-31T09:14:00;4.75;;;2.20;;
69985;SDS011;57328;52.054;5.294;2023-07-31T09:16:31;7.40;;;2.33;;
69985;SDS011;57328;52.054;5.294;2023-07-31T09:19:00;5.97;;;2.33;;
69985;SDS011;57328;52.054;5.294;2023-07-31T09:21:29;6.38;;;2.10;;
69985;SDS011;57328;52.054;5.294;2023-07-31T09:23:56;4.47;;;2.10;;
69985;SDS011;57328;52.054;5.294;2023-07-31T09:26:31;5.47;;;2.47;;
69985;SDS011;57328;52.054;5.294;2023-07-31T09:34:05;6.40;;;2.25;;
69985;SDS011;57328;52.054;5.294;2023-07-31T09:36:33;5.97;;;2.53;;
69985;SDS011;57328;52.054;5.294;2023-07-31T09:39:07;4.93;;;2.10;;
69985;SDS011;57328;52.054;5.294;2023-07-31T09:41:39;4.47;;;1.95;;
69985;SDS011;57328;52.054;5.294;2023-07-31T09:44:06;7.07;;;2.50;;
69985;SDS011;57328;52.054;5.294;2023-07-31T09:46:36;6.40;;;2.20;;
69985;SDS011;57328;52.054;5.294;2023-07-31T09:49:08;6.57;;;2.22;;
69985;SDS011;57328;52.054;5.294;2023-07-31T09:51:36;4.50;;;2.10;;
69985;SDS011;57328;52.054;5.294;2023-07-31T09:54:10;4.90;;;2.40;;
69985;SDS011;57328;52.054;5.294;2023-07-31T09:56:40;3.85;;;1.75;;
69985;SDS011;57328;52.054;5.294;2023-07-31T09:59:09;6.47;;;2.67;;
69985;SDS011;57328;52.054;5.294;2023-07-31T10:01:38;6.15;;;2.70;;
69985;SDS011;57328;52.054;5.294;2023-07-31T10:04:06;6.65;;;2.90;;
69985;SDS011;57328;52.054;5.294;2023-07-31T10:06:34;6.53;;;2.97;;
69985;SDS011;57328;52.054;5.294;2023-07-31T10:09:03;5.28;;;2.60;;
69985;SDS011;57328;52.054;5.294;2023-07-31T10:11:38;7.55;;;3.00;;
69985;SDS011;57328;52.054;5.294;2023-07-31T10:14:10;8.20;;;3.30;;
69985;SDS011;57328;52.054;5.294;2023-07-31T10:16:38;8.85;;;3.45;;
69985;SDS011;57328;52.054;5.294;2023-07-31T10:19:07;6.63;;;3.42;;
69985;SDS011;57328;52.054;5.294;2023-07-31T10:21:35;7.28;;;3.55;;
69985;SDS011;57328;52.054;5.294;2023-07-31T10:24:04;11.25;;;3.63;;
69985;SDS011;57328;52.054;5.294;2023-07-31T10:26:32;7.78;;;3.25;;
69985;SDS011;57328;52.054;5.294;2023-07-31T10:31:28;8.35;;;3.50;;
69985;SDS011;57328;52.054;5.294;2023-07-31T10:33:56;7.32;;;3.25;;
69985;SDS011;57328;52.054;5.294;2023-07-31T10:36:24;7.40;;;3.50;;
69985;SDS011;57328;52.054;5.294;2023-07-31T10:38:54;7.78;;;3.45;;
69985;SDS011;57328;52.054;5.294;2023-07-31T10:41:29;7.05;;;3.22;;
69985;SDS011;57328;52.054;5.294;2023-07-31T10:43:59;10.20;;;3.42;;
69985;SDS011;57328;52.054;5.294;2023-07-31T10:46:27;7.30;;;2.90;;
69985;SDS011;57328;52.054;5.294;2023-07-31T10:48:59;7.10;;;3.03;;
69985;SDS011;57328;52.054;5.294;2023-07-31T10:51:34;7.93;;;3.30;;
69985;SDS011;57328;52.054;5.294;2023-07-31T10:54:11;5.82;;;2.97;;
69985;SDS011;57328;52.054;5.294;2023-07-31T10:56:39;5.65;;;3.08;;
69985;SDS011;57328;52.054;5.294;2023-07-31T10:59:07;9.90;;;3.30;;
69985;SDS011;57328;52.054;5.294;2023-07-31T11:01:50;5.80;;;2.72;;
69985;SDS011;57328;52.054;5.294;2023-07-31T11:04:22;5.07;;;2.60;;
69985;SDS011;57328;52.054;5.294;2023-07-31T11:06:57;4.85;;;2.47;;
69985;SDS011;57328;52.054;5.294;2023-07-31T11:09:31;4.68;;;2.40;;
69985;SDS011;57328;52.054;5.294;2023-07-31T11:11:59;5.55;;;2.20;;
69985;SDS011;57328;52.054;5.294;2023-07-31T11:14:27;5.10;;;2.50;;
69985;SDS011;57328;52.054;5.294;2023-07-31T11:16:54;5.47;;;2.33;;
69985;SDS011;57328;52.054;5.294;2023-07-31T11:19:22;4.65;;;2.50;;
69985;SDS011;57328;52.054;5.294;2023-07-31T11:21:53;6.45;;;2.50;;
69985;SDS011;57328;52.054;5.294;2023-07-31T11:24:20;6.82;;;2.85;;
69985;SDS011;57328;52.054;5.294;2023-07-31T11:26:49;6.57;;;2.65;;
69985;SDS011;57328;52.054;5.294;2023-07-31T11:29:16;7.13;;;2.70;;
69985;SDS011;57328;52.054;5.294;2023-07-31T11:31:44;7.43;;;3.10;;
69985;SDS011;57328;52.054;5.294;2023-07-31T11:34:11;6.82;;;3.00;;
69985;SDS011;57328;52.054;5.294;2023-07-31T11:36:38;7.68;;;3.40;;
69985;SDS011;57328;52.054;5.294;2023-07-31T11:39:09;6.70;;;3.10;;
69985;SDS011;57328;52.054;5.294;2023-07-31T11:41:40;7.20;;;3.40;;
69985;SDS011;57328;52.054;5.294;2023-07-31T11:44:07;7.20;;;3.10;;
69985;SDS011;57328;52.054;5.294;2023-07-31T11:46:53;7.45;;;3.53;;
69985;SDS011;57328;52.054;5.294;2023-07-31T11:49:23;6.35;;;3.10;;
69985;SDS011;57328;52.054;5.294;2023-07-31T11:51:50;7.20;;;3.47;;
69985;SDS011;57328;52.054;5.294;2023-07-31T11:54:17;6.30;;;3.00;;
69985;SDS011;57328;52.054;5.294;2023-07-31T11:56:45;6.47;;;3.25;;
69985;SDS011;57328;52.054;5.294;2023-07-31T11:59:12;6.90;;;3.08;;
69985;SDS011;57328;52.054;5.294;2023-07-31T12:01:39;5.85;;;2.97;;
69985;SDS011;57328;52.054;5.294;2023-07-31T12:04:07;7.90;;;2.75;;
69985;SDS011;57328;52.054;5.294;2023-07-31T12:06:34;5.63;;;3.08;;
69985;SDS011;57328;52.054;5.294;2023-07-31T12:11:30;4.90;;;2.40;;
69985;SDS011;57328;52.054;5.294;2023-07-31T12:13:57;5.60;;;2.30;;
69985;SDS011;57328;52.054;5.294;2023-07-31T12:16:26;5.05;;;2.10;;
69985;SDS011;57328;52.054;5.294;2023-07-31T12:18:55;7.13;;;2.47;;
69985;SDS011;57328;52.054;5.294;2023-07-31T12:21:22;5.82;;;2.53;;
69985;SDS011;57328;52.054;5.294;2023-07-31T12:23:51;5.47;;;2.20;;
69985;SDS011;57328;52.054;5.294;2023-07-31T12:26:19;6.93;;;2.55;;
69985;SDS011;57328;52.054;5.294;2023-07-31T12:28:48;4.78;;;2.22;;
69985;SDS011;57328;52.054;5.294;2023-07-31T12:31:16;3.67;;;2.17;;
69985;SDS011;57328;52.054;5.294;2023-07-31T12:33:44;5.40;;;2.90;;
69985;SDS011;57328;52.054;5.294;2023-07-31T12:36:14;5.75;;;2.95;;
69985;SDS011;57328;52.054;5.294;2023-07-31T12:38:43;5.53;;;3.08;;
69985;SDS011;57328;52.054;5.294;2023-07-31T12:41:10;5.60;;;2.97;;
69985;SDS011;57328;52.054;5.294;2023-07-31T12:43:38;5.72;;;3.10;;
69985;SDS011;57328;52.054;5.294;2023-07-31T12:48:39;6.78;;;2.97;;
69985;SDS011;57328;52.054;5.294;2023-07-31T12:51:07;6.28;;;3.25;;
69985;SDS011;57328;52.054;5.294;2023-07-31T12:53:34;7.18;;;3.33;;
69985;SDS011;57328;52.054;5.294;2023-07-31T12:56:02;6.28;;;3.25;;
69985;SDS011;57328;52.054;5.294;2023-07-31T12:58:30;6.47;;;3.15;;
69985;SDS011;57328;52.054;5.294;2023-07-31T13:00:57;5.90;;;3.47;;
69985;SDS011;57328;52.054;5.294;2023-07-31T13:03:24;5.95;;;3.00;;
69985;SDS011;57328;52.054;5.294;2023-07-31T13:05:52;5.50;;;3.10;;
69985;SDS011;57328;52.054;5.294;2023-07-31T13:08:19;5.70;;;3.28;;
69985;SDS011;57328;52.054;5.294;2023-07-31T13:10:47;7.25;;;3.05;;
69985;SDS011;57328;52.054;5.294;2023-07-31T13:13:14;6.07;;;3.03;;
69985;SDS011;57328;52.054;5.294;2023-07-31T13:15:41;7.03;;;3.00;;
69985;SDS011;57328;52.054;5.294;2023-07-31T13:18:08;6.53;;;3.10;;
69985;SDS011;57328;52.054;5.294;2023-07-31T13:20:36;5.95;;;2.90;;
69985;SDS011;57328;52.054;5.294;2023-07-31T13:23:03;6.35;;;2.35;;
69985;SDS011;57328;52.054;5.294;2023-07-31T13:25:30;5.57;;;2.70;;
69985;SDS011;57328;52.054;5.294;2023-07-31T13:27:58;4.82;;;2.38;;
69985;SDS011;57328;52.054;5.294;2023-07-31T13:30:28;5.32;;;2.60;;
69985;SDS011;57328;52.054;5.294;2023-07-31T13:32:55;4.28;;;2.03;;
69985;SDS011;57328;52.054;5.294;2023-07-31T13:35:23;6.68;;;2.63;;
69985;SDS011;57328;52.054;5.294;2023-07-31T13:37:50;4.82;;;2.38;;
69985;SDS011;57328;52.054;5.294;2023-07-31T13:40:18;6.90;;;2.70;;
69985;SDS011;57328;52.054;5.294;2023-07-31T13:42:45;5.07;;;2.65;;
69985;SDS011;57328;52.054;5.294;2023-07-31T13:45:14;4.38;;;2.65;;
69985;SDS011;57328;52.054;5.294;2023-07-31T13:47:41;5.55;;;2.60;;
69985;SDS011;57328;52.054;5.294;2023-07-31T13:50:09;6.35;;;2.72;;
69985;SDS011;57328;52.054;5.294;2023-07-31T13:52:36;4.90;;;2.35;;
69985;SDS011;57328;52.054;5.294;2023-07-31T13:55:03;5.93;;;2.47;;
69985;SDS011;57328;52.054;5.294;2023-07-31T13:57:31;4.40;;;2.70;;
69985;SDS011;57328;52.054;5.294;2023-07-31T13:59:59;5.25;;;2.90;;
69985;SDS011;57328;52.054;5.294;2023-07-31T14:02:26;7.32;;;4.20;;
69985;SDS011;57328;52.054;5.294;2023-07-31T14:04:53;8.43;;;5.00;;
69985;SDS011;57328;52.054;5.294;2023-07-31T14:07:20;12.02;;;6.75;;
69985;SDS011;57328;52.054;5.294;2023-07-31T14:09:48;11.30;;;6.75;;
69985;SDS011;57328;52.054;5.294;2023-07-31T14:12:15;14.20;;;7.43;;
69985;SDS011;57328;52.054;5.294;2023-07-31T14:15:02;13.68;;;7.18;;
69985;SDS011;57328;52.054;5.294;2023-07-31T14:17:30;10.02;;;6.13;;
69985;SDS011;57328;52.054;5.294;2023-07-31T14:19:57;10.48;;;5.90;;
69985;SDS011;57328;52.054;5.294;2023-07-31T14:22:28;10.98;;;6.65;;
69985;SDS011;57328;52.054;5.294;2023-07-31T14:24:58;12.30;;;7.57;;
69985;SDS011;57328;52.054;5.294;2023-07-31T14:27:25;10.30;;;6.55;;
69985;SDS011;57328;52.054;5.294;2023-07-31T14:29:52;11.15;;;6.88;;
69985;SDS011;57328;52.054;5.294;2023-07-31T14:32:20;14.55;;;7.18;;
69985;SDS011;57328;52.054;5.294;2023-07-31T14:34:48;13.95;;;7.63;;
69985;SDS011;57328;52.054;5.294;2023-07-31T14:37:15;12.50;;;7.68;;
69985;SDS011;57328;52.054;5.294;2023-07-31T14:39:42;13.93;;;6.55;;
69985;SDS011;57328;52.054;5.294;2023-07-31T14:42:09;11.52;;;6.07;;
69985;SDS011;57328;52.054;5.294;2023-07-31T14:44:37;12.80;;;6.10;;
69985;SDS011;57328;52.054;5.294;2023-07-31T14:47:04;10.88;;;6.20;;
69985;SDS011;57328;52.054;5.294;2023-07-31T14:49:32;10.43;;;5.80;;
69985;SDS011;57328;52.054;5.294;2023-07-31T14:51:59;8.88;;;5.18;;
69985;SDS011;57328;52.054;5.294;2023-07-31T14:54:26;9.35;;;5.18;;
69985;SDS011;57328;52.054;5.294;2023-07-31T14:56:53;9.00;;;5.00;;
69985;SDS011;57328;52.054;5.294;2023-07-31T14:59:21;10.23;;;5.25;;
69985;SDS011;57328;52.054;5.294;2023-07-31T15:01:48;10.23;;;4.95;;
69985;SDS011;57328;52.054;5.294;2023-07-31T15:04:15;10.88;;;5.60;;
69985;SDS011;57328;52.054;5.294;2023-07-31T15:06:43;9.98;;;5.10;;